Time;durP1;ratioP1;P1;durP2;ratioP2;P2;SDS_P1;SDS_P2;PMS_P1;PMS_P2;Temp;Humidity;BMP_temperature;BMP_pressure;BME280_temperature;BME280_humidity;BME280_pressure;Samples;Min_cycle;Max_cycle;Signal;HPM_P1;HPM_P2
2022/11/07 04:31:33;;;;;;;2.58;1.00;;;;;;;;;;5037842;23;20115;-85
2022/11/07 04:33:58;;;;;;;1.90;0.93;;;;;;;;;;5035556;28;20078;-85
2022/11/07 04:36:24;;;;;;;1.00;0.82;;;;;;;;;;5028896;28;20026;-86
2022/11/07 04:38:49;;;;;;;1.20;0.85;;;;;;;;;;5032860;28;20533;-86
2022/11/07 04:41:23;;;;;;;1.48;1.02;;;;;;;;;;5015704;28;20495;-85
2022/11/07 04:43:48;;;;;;;0.93;0.80;;;;;;;;;;5029423;28;20109;-86
2022/11/07 04:46:15;;;;;;;1.05;0.90;;;;;;;;;;5013248;28;20057;-85
2022/11/07 04:48:40;;;;;;;2.13;1.95;;;;;;;;;;5021544;28;20065;-86
2022/11/07 04:51:12;;;;;;;2.08;1.13;;;;;;;;;;5008830;28;20105;-83
2022/11/07 04:53:37;;;;;;;2.75;1.48;;;;;;;;;;5024250;28;20057;-84
2022/11/07 04:56:03;;;;;;;1.23;0.93;;;;;;;;;;5016042;28;20025;-87
2022/11/07 04:58:28;;;;;;;1.20;1.10;;;;;;;;;;5036470;28;20041;-87
2022/11/07 05:00:53;;;;;;;1.85;1.30;;;;;;;;;;5019969;28;20033;-87
2022/11/07 05:03:19;;;;;;;0.80;0.80;;;;;;;;;;5032011;28;20032;-86
2022/11/07 05:05:44;;;;;;;0.95;0.93;;;;;;;;;;5004087;28;20033;-85
2022/11/07 05:08:09;;;;;;;1.08;0.95;;;;;;;;;;5023152;28;20063;-86
2022/11/07 05:10:35;;;;;;;4.03;1.10;;;;;;;;;;5031008;28;20029;-86
2022/11/07 05:13:00;;;;;;;2.17;1.20;;;;;;;;;;5029605;28;20041;-86
2022/11/07 05:15:25;;;;;;;2.70;1.00;;;;;;;;;;5010996;28;20120;-85
2022/11/07 05:17:51;;;;;;;1.80;1.15;;;;;;;;;;5038569;28;20025;-85
2022/11/07 05:20:29;;;;;;;1.33;1.00;;;;;;;;;;5025678;28;20040;-85
2022/11/07 05:23:11;;;;;;;1.35;0.82;;;;;;;;;;5030139;28;20061;-84
2022/11/07 05:25:56;;;;;;;1.60;1.00;;;;;;;;;;5030611;28;20420;-86
2022/11/07 05:28:28;;;;;;;1.50;1.00;;;;;;;;;;4997049;28;20042;-86
2022/11/07 05:30:56;;;;;;;1.37;1.10;;;;;;;;;;5019248;28;20041;-86
2022/11/07 05:33:22;;;;;;;3.55;1.15;;;;;;;;;;5020635;28;20290;-85
2022/11/07 05:35:48;;;;;;;0.63;0.63;;;;;;;;;;5000738;28;20097;-86
2022/11/07 05:38:13;;;;;;;2.50;0.85;;;;;;;;;;5003444;28;20037;-87
2022/11/07 05:40:40;;;;;;;0.98;0.93;;;;;;;;;;5035413;28;20041;-86
2022/11/07 05:43:07;;;;;;;1.67;1.23;;;;;;;;;;5010898;28;20025;-84
2022/11/07 05:45:37;;;;;;;1.15;1.08;;;;;;;;;;5013774;28;20033;-88
2022/11/07 05:48:06;;;;;;;2.33;1.08;;;;;;;;;;5019506;28;20045;-84
2022/11/07 05:50:31;;;;;;;1.85;1.20;;;;;;;;;;5015271;28;20026;-85
2022/11/07 05:52:57;;;;;;;1.00;0.88;;;;;;;;;;5000808;28;20087;-84
2022/11/07 05:55:24;;;;;;;1.17;0.82;;;;;;;;;;5013925;28;20018;-86
2022/11/07 05:57:49;;;;;;;0.77;0.77;;;;;;;;;;5016660;28;20022;-85
2022/11/07 06:00:15;;;;;;;4.35;1.30;;;;;;;;;;5018202;28;20109;-85
2022/11/07 06:02:41;;;;;;;2.22;1.00;;;;;;;;;;5002792;28;20022;-84
2022/11/07 06:05:07;;;;;;;5.82;1.20;;;;;;;;;;4999392;28;20302;-85
2022/11/07 06:07:36;;;;;;;2.38;1.15;;;;;;;;;;4998132;28;20029;-85
2022/11/07 06:10:06;;;;;;;1.45;1.08;;;;;;;;;;5014603;28;20030;-84
2022/11/07 06:12:31;;;;;;;2.65;1.45;;;;;;;;;;4998046;28;20384;-86
2022/11/07 06:14:56;;;;;;;2.33;1.27;;;;;;;;;;5015635;28;20041;-85
2022/11/07 06:17:22;;;;;;;2.40;1.05;;;;;;;;;;5016126;28;20042;-86
2022/11/07 06:19:47;;;;;;;2.92;1.52;;;;;;;;;;4989871;28;20025;-86
2022/11/07 06:22:13;;;;;;;1.25;1.10;;;;;;;;;;5012472;28;20442;-87
2022/11/07 06:24:38;;;;;;;0.90;0.90;;;;;;;;;;5014815;28;20026;-86
2022/11/07 06:27:03;;;;;;;2.38;0.98;;;;;;;;;;5031252;28;20082;-86
2022/11/07 06:29:29;;;;;;;4.25;1.17;;;;;;;;;;5017710;28;20118;-86
2022/11/07 06:31:54;;;;;;;2.83;1.17;;;;;;;;;;5038108;28;20021;-83
2022/11/07 06:34:19;;;;;;;3.53;1.08;;;;;;;;;;5021841;28;20022;-84
2022/11/07 06:36:45;;;;;;;4.07;1.13;;;;;;;;;;5017559;28;20029;-87
2022/11/07 06:39:10;;;;;;;2.72;0.98;;;;;;;;;;5008848;28;20029;-89
2022/11/07 06:41:36;;;;;;;5.43;0.98;;;;;;;;;;5012147;28;20084;-88
2022/11/07 06:44:01;;;;;;;2.90;1.10;;;;;;;;;;5014615;28;20168;-87
2022/11/07 06:46:26;;;;;;;4.28;1.60;;;;;;;;;;5007854;28;20022;-85
2022/11/07 06:48:53;;;;;;;1.77;1.10;;;;;;;;;;5022365;28;20368;-87
2022/11/07 06:51:18;;;;;;;0.98;0.90;;;;;;;;;;4996476;28;20034;-88
2022/11/07 06:53:43;;;;;;;4.30;1.08;;;;;;;;;;5002582;28;20567;-88
2022/11/07 06:56:13;;;;;;;0.85;0.73;;;;;;;;;;5030108;28;20021;-88
2022/11/07 06:58:38;;;;;;;2.42;1.05;;;;;;;;;;5031105;28;20037;-85
2022/11/07 07:01:07;;;;;;;4.60;1.20;;;;;;;;;;5011921;28;20049;-88
2022/11/07 07:03:33;;;;;;;2.78;0.98;;;;;;;;;;5017461;28;20044;-85
2022/11/07 07:06:03;;;;;;;4.55;0.80;;;;;;;;;;5015142;28;20519;-87
2022/11/07 07:08:29;;;;;;;2.53;1.00;;;;;;;;;;4996859;28;20038;-87
2022/11/07 07:10:54;;;;;;;2.30;1.67;;;;;;;;;;5023556;28;20029;-84
2022/11/07 07:13:20;;;;;;;1.77;1.10;;;;;;;;;;4998023;28;20025;-86
2022/11/07 07:15:56;;;;;;;3.42;1.63;;;;;;;;;;5010054;28;20025;-86
2022/11/07 07:18:23;;;;;;;1.55;1.00;;;;;;;;;;5022855;28;20034;-88
2022/11/07 07:20:49;;;;;;;4.18;1.33;;;;;;;;;;5002171;28;20058;-85
2022/11/07 07:23:16;;;;;;;3.42;1.30;;;;;;;;;;5022529;28;20037;-86
2022/11/07 07:25:41;;;;;;;3.10;1.30;;;;;;;;;;5005296;28;20018;-86
2022/11/07 07:28:07;;;;;;;4.35;1.15;;;;;;;;;;5003348;28;20101;-87
2022/11/07 07:30:32;;;;;;;3.28;0.80;;;;;;;;;;5002847;28;20496;-86
2022/11/07 07:32:58;;;;;;;1.75;0.90;;;;;;;;;;5019853;28;20482;-88
2022/11/07 07:35:23;;;;;;;1.95;0.98;;;;;;;;;;5006671;28;20033;-89
2022/11/07 07:37:50;;;;;;;4.65;1.45;;;;;;;;;;5015741;28;20072;-85
2022/11/07 07:40:16;;;;;;;3.78;1.17;;;;;;;;;;5013880;28;20053;-87
2022/11/07 07:42:42;;;;;;;1.33;1.00;;;;;;;;;;5012984;28;20432;-87
2022/11/07 07:45:13;;;;;;;2.63;0.95;;;;;;;;;;5014241;28;20041;-87
2022/11/07 07:47:39;;;;;;;3.53;0.85;;;;;;;;;;5012375;28;20030;-86
2022/11/07 07:50:06;;;;;;;3.67;1.42;;;;;;;;;;5017207;28;20029;-85
2022/11/07 07:52:31;;;;;;;6.50;1.10;;;;;;;;;;5000383;28;20029;-87
2022/11/07 07:54:57;;;;;;;2.80;0.82;;;;;;;;;;5007657;28;20025;-87
2022/11/07 07:57:22;;;;;;;2.15;0.90;;;;;;;;;;4997433;28;20050;-87
2022/11/07 07:59:47;;;;;;;1.73;1.30;;;;;;;;;;5006804;28;20053;-86
2022/11/07 08:02:13;;;;;;;5.00;1.70;;;;;;;;;;5006196;28;20022;-87
2022/11/07 08:04:41;;;;;;;6.88;1.23;;;;;;;;;;4991281;28;20069;-87
2022/11/07 08:07:07;;;;;;;5.10;1.63;;;;;;;;;;4997596;28;20040;-86
2022/11/07 08:09:35;;;;;;;2.20;1.05;;;;;;;;;;4997431;28;20030;-86
2022/11/07 08:12:07;;;;;;;2.75;1.10;;;;;;;;;;5013208;28;20036;-86
2022/11/07 08:14:33;;;;;;;4.53;1.65;;;;;;;;;;5015784;28;20017;-87
2022/11/07 08:16:59;;;;;;;6.75;1.20;;;;;;;;;;4997199;28;20018;-84
2022/11/07 08:19:25;;;;;;;1.77;1.13;;;;;;;;;;4984064;28;20022;-86
2022/11/07 08:21:50;;;;;;;4.03;1.13;;;;;;;;;;4980815;28;20312;-90
2022/11/07 08:24:15;;;;;;;0.68;0.60;;;;;;;;;;4978740;28;20026;-87
2022/11/07 08:26:41;;;;;;;1.92;0.93;;;;;;;;;;5003885;28;20446;-85
2022/11/07 08:29:06;;;;;;;3.10;0.93;;;;;;;;;;4999222;28;20033;-86
2022/11/07 08:31:32;;;;;;;3.08;1.05;;;;;;;;;;5013964;28;20048;-86
2022/11/07 08:33:58;;;;;;;2.33;0.90;;;;;;;;;;5011508;28;20022;-86
2022/11/07 08:36:24;;;;;;;1.73;1.00;;;;;;;;;;4993844;28;20013;-86
2022/11/07 08:38:50;;;;;;;4.07;1.10;;;;;;;;;;5015260;28;20032;-85
2022/11/07 08:41:15;;;;;;;2.75;1.15;;;;;;;;;;5017016;28;20026;-86
2022/11/07 08:43:41;;;;;;;3.85;0.88;;;;;;;;;;4999760;28;20021;-85
2022/11/07 08:46:06;;;;;;;1.75;0.90;;;;;;;;;;5017575;28;20018;-86
2022/11/07 08:48:32;;;;;;;2.08;1.05;;;;;;;;;;5000328;28;20029;-86
2022/11/07 08:50:57;;;;;;;3.95;1.35;;;;;;;;;;4999843;28;20033;-87
2022/11/07 08:53:24;;;;;;;1.63;0.95;;;;;;;;;;5010083;28;20045;-87
2022/11/07 08:55:50;;;;;;;3.20;1.20;;;;;;;;;;4980668;28;20026;-84
2022/11/07 08:58:16;;;;;;;4.63;1.17;;;;;;;;;;4997126;28;20385;-86
2022/11/07 09:00:42;;;;;;;5.47;1.30;;;;;;;;;;4998350;28;20030;-84
2022/11/07 09:03:07;;;;;;;4.60;1.00;;;;;;;;;;4988099;28;20070;-88
2022/11/07 09:05:33;;;;;;;2.40;1.20;;;;;;;;;;5007971;28;20021;-86
2022/11/07 09:07:59;;;;;;;1.25;0.75;;;;;;;;;;5019050;28;20034;-86
2022/11/07 09:10:25;;;;;;;3.40;1.00;;;;;;;;;;5015784;28;20138;-87
2022/11/07 09:12:51;;;;;;;6.03;1.25;;;;;;;;;;4983615;28;20037;-84
2022/11/07 09:15:17;;;;;;;4.55;1.30;;;;;;;;;;4984470;28;20018;-88
2022/11/07 09:17:44;;;;;;;3.55;1.10;;;;;;;;;;5002170;28;20109;-88
2022/11/07 09:20:10;;;;;;;3.97;1.35;;;;;;;;;;4983207;28;20041;-87
2022/11/07 09:22:36;;;;;;;1.35;1.15;;;;;;;;;;4999269;28;20038;-87
2022/11/07 09:25:01;;;;;;;3.88;0.85;;;;;;;;;;4991791;28;20094;-85
2022/11/07 09:27:27;;;;;;;1.83;0.70;;;;;;;;;;5013987;28;20073;-86
2022/11/07 09:29:52;;;;;;;1.10;0.90;;;;;;;;;;5002037;28;20034;-86
2022/11/07 09:32:17;;;;;;;6.32;0.98;;;;;;;;;;4989215;28;20498;-86
2022/11/07 09:34:46;;;;;;;3.53;0.95;;;;;;;;;;5014220;28;20017;-85
2022/11/07 09:37:11;;;;;;;5.05;1.77;;;;;;;;;;5031684;28;20037;-86
2022/11/07 09:39:36;;;;;;;2.10;1.15;;;;;;;;;;4986913;28;20110;-86
2022/11/07 09:42:19;;;;;;;2.08;0.75;;;;;;;;;;4981094;28;20551;-85
2022/11/07 09:44:54;;;;;;;6.70;1.80;;;;;;;;;;5015882;28;20492;-85
2022/11/07 09:47:26;;;;;;;4.97;1.02;;;;;;;;;;5018629;28;20086;-85
2022/11/07 09:49:56;;;;;;;3.88;1.00;;;;;;;;;;5001695;28;20211;-86
2022/11/07 09:52:45;;;;;;;2.75;0.90;;;;;;;;;;5025485;28;20012;-85
2022/11/07 09:55:31;;;;;;;7.18;2.22;;;;;;;;;;5001405;28;20613;-84
2022/11/07 09:58:03;;;;;;;2.13;0.80;;;;;;;;;;5001369;28;20041;-87
2022/11/07 10:00:29;;;;;;;;;;;;;;;;;;5015565;28;20372;-84
2022/11/07 10:02:56;;;;;;;1.48;1.10;;;;;;;;;;4995147;28;20352;-87
2022/11/07 10:05:36;;;;;;;2.80;1.40;;;;;;;;;;5007220;28;20083;-85
2022/11/07 10:08:51;;;;;;;3.13;1.10;;;;;;;;;;4998542;28;20073;-84
2022/11/07 10:11:32;;;;;;;3.78;1.63;;;;;;;;;;4969379;28;20034;-85
2022/11/07 10:14:25;;;;;;;3.17;1.00;;;;;;;;;;4995781;28;20023;-85
2022/11/07 10:16:51;;;;;;;2.00;1.05;;;;;;;;;;5015228;28;20036;-85
2022/11/07 10:19:38;;;;;;;4.28;1.27;;;;;;;;;;4999064;28;20108;-86
2022/11/07 10:22:13;;;;;;;2.47;1.20;;;;;;;;;;4998628;28;20048;-84
2022/11/07 10:25:23;;;;;;;1.40;0.88;;;;;;;;;;5015723;28;20018;-84
2022/11/07 10:28:14;;;;;;;1.85;0.80;;;;;;;;;;4984350;28;20038;-86
2022/11/07 10:30:42;;;;;;;5.10;1.10;;;;;;;;;;5018679;28;20044;-86
2022/11/07 10:33:32;;;;;;;4.13;1.27;;;;;;;;;;5014789;28;20032;-85
2022/11/07 10:36:04;;;;;;;4.57;1.02;;;;;;;;;;5019989;28;20026;-86
2022/11/07 10:38:32;;;;;;;1.10;0.77;;;;;;;;;;5002905;28;20026;-86
2022/11/07 10:40:58;;;;;;;0.88;0.75;;;;;;;;;;4998225;28;20109;-84
2022/11/07 10:43:36;;;;;;;6.25;1.45;;;;;;;;;;5019584;28;20025;-86
2022/11/07 10:46:04;;;;;;;6.30;1.00;;;;;;;;;;5029891;28;20040;-87
2022/11/07 10:48:32;;;;;;;5.32;1.65;;;;;;;;;;5024658;28;20018;-86
2022/11/07 10:50:57;;;;;;;9.02;1.38;;;;;;;;;;5013827;28;20098;-86
2022/11/07 10:53:25;;;;;;;5.63;1.50;;;;;;;;;;5002023;28;20109;-86
2022/11/07 10:55:52;;;;;;;4.55;1.85;;;;;;;;;;5007551;28;20105;-87
2022/11/07 10:58:21;;;;;;;1.60;0.90;;;;;;;;;;5007690;28;20026;-87
2022/11/07 11:01:07;;;;;;;3.63;1.17;;;;;;;;;;5005493;28;20022;-86
2022/11/07 11:03:45;;;;;;;0.68;0.60;;;;;;;;;;5015237;28;20041;-87
2022/11/07 11:06:16;;;;;;;5.90;0.95;;;;;;;;;;5008966;28;20118;-87
2022/11/07 11:08:42;;;;;;;2.40;0.98;;;;;;;;;;5005531;28;20013;-87
2022/11/07 11:11:20;;;;;;;2.30;0.70;;;;;;;;;;5017609;28;20026;-86
2022/11/07 11:13:47;;;;;;;9.18;0.80;;;;;;;;;;5006341;28;20180;-85
2022/11/07 11:16:23;;;;;;;3.08;0.88;;;;;;;;;;5010585;28;20022;-87
2022/11/07 11:18:50;;;;;;;5.50;0.90;;;;;;;;;;5034517;28;20006;-84
2022/11/07 11:21:16;;;;;;;3.55;0.88;;;;;;;;;;5027637;28;20032;-85
2022/11/07 11:23:44;;;;;;;2.75;0.82;;;;;;;;;;5027418;28;20089;-88
2022/11/07 11:26:31;;;;;;;1.00;0.55;;;;;;;;;;5015892;28;20018;-87
2022/11/07 11:29:03;;;;;;;3.60;1.05;;;;;;;;;;5013379;28;20030;-84
2022/11/07 11:31:33;;;;;;;3.20;1.02;;;;;;;;;;5016262;28;20041;-88
2022/11/07 11:34:15;;;;;;;3.13;0.95;;;;;;;;;;5003854;28;20681;-87
2022/11/07 11:36:44;;;;;;;;;;;;;;;;;;5003824;28;20033;-85
2022/11/07 11:39:25;;;;;;;3.67;0.80;;;;;;;;;;5015673;28;19990;-87
2022/11/07 11:41:54;;;;;;;0.65;0.60;;;;;;;;;;5014519;28;20034;-86
2022/11/07 11:44:28;;;;;;;1.63;0.82;;;;;;;;;;5015111;28;20076;-86
2022/11/07 11:47:09;;;;;;;5.70;1.00;;;;;;;;;;5000654;28;20064;-85
2022/11/07 11:49:53;;;;;;;4.63;0.80;;;;;;;;;;5015204;28;20506;-86
2022/11/07 11:52:21;;;;;;;1.52;0.77;;;;;;;;;;5021879;28;20041;-87
2022/11/07 11:54:48;;;;;;;1.75;0.70;;;;;;;;;;5004917;28;20129;-86
2022/11/07 11:57:28;;;;;;;2.83;1.02;;;;;;;;;;5017557;28;20468;-86
2022/11/07 12:00:05;;;;;;;1.55;0.77;;;;;;;;;;5016669;28;20041;-87
2022/11/07 12:02:58;;;;;;;2.47;0.70;;;;;;;;;;5015337;28;20026;-85
2022/11/07 12:05:51;;;;;;;2.15;0.93;;;;;;;;;;5012968;28;20026;-86
2022/11/07 12:08:41;;;;;;;4.88;0.73;;;;;;;;;;5007899;28;20109;-84
2022/11/07 12:11:31;;;;;;;1.17;0.75;;;;;;;;;;5009177;28;21539;-85
2022/11/07 12:14:15;;;;;;;0.70;0.63;;;;;;;;;;5012843;28;20149;-84
2022/11/07 12:16:52;;;;;;;1.83;0.93;;;;;;;;;;5017168;28;20041;-85
2022/11/07 12:19:40;;;;;;;2.90;0.73;;;;;;;;;;5000062;28;20049;-87
2022/11/07 12:22:14;;;;;;;2.67;0.70;;;;;;;;;;5015093;28;20037;-88
2022/11/07 12:24:56;;;;;;;3.85;0.98;;;;;;;;;;5032637;28;20026;-85
2022/11/07 12:27:41;;;;;;;6.45;0.95;;;;;;;;;;4988570;28;20042;-87
2022/11/07 12:30:18;;;;;;;1.73;0.82;;;;;;;;;;5001568;28;20086;-87
2022/11/07 12:32:59;;;;;;;2.72;1.08;;;;;;;;;;5019289;28;20124;-87
2022/11/07 12:35:36;;;;;;;1.98;1.05;;;;;;;;;;5023537;28;20049;-87
2022/11/07 12:38:29;;;;;;;2.97;0.88;;;;;;;;;;5015834;28;20542;-87
2022/11/07 12:41:23;;;;;;;3.60;0.77;;;;;;;;;;5017419;28;20045;-88
2022/11/07 12:44:11;;;;;;;2.67;0.80;;;;;;;;;;4998760;28;20094;-88
2022/11/07 12:46:56;;;;;;;2.20;0.73;;;;;;;;;;5009379;28;20042;-87
2022/11/07 12:49:25;;;;;;;2.47;0.85;;;;;;;;;;5000330;28;20022;-86
2022/11/07 12:52:17;;;;;;;1.58;0.77;;;;;;;;;;5003390;28;20029;-84
2022/11/07 12:54:50;;;;;;;3.10;0.93;;;;;;;;;;4997193;28;20101;-85
2022/11/07 12:57:21;;;;;;;4.57;0.90;;;;;;;;;;5001329;28;20165;-87
2022/11/07 12:59:53;;;;;;;3.38;0.88;;;;;;;;;;5013419;28;20025;-86
2022/11/07 13:02:34;;;;;;;2.28;0.70;;;;;;;;;;4997693;28;20026;-85
2022/11/07 13:05:06;;;;;;;4.32;1.08;;;;;;;;;;4994811;28;20053;-86
2022/11/07 13:07:38;;;;;;;1.83;0.70;;;;;;;;;;5017300;28;20033;-84
2022/11/07 13:10:18;;;;;;;2.67;0.98;;;;;;;;;;5017237;28;20500;-84
2022/11/07 13:13:06;;;;;;;0.77;0.70;;;;;;;;;;4988117;28;20362;-84
2022/11/07 13:15:31;;;;;;;2.70;0.93;;;;;;;;;;5019094;28;20032;-85
2022/11/07 13:17:56;;;;;;;1.55;0.80;;;;;;;;;;5013741;28;20038;-85
2022/11/07 13:20:28;;;;;;;2.13;1.17;;;;;;;;;;5015934;28;20033;-83
2022/11/07 13:22:57;;;;;;;7.05;1.00;;;;;;;;;;5009694;28;20030;-84
2022/11/07 13:25:31;;;;;;;6.97;1.15;;;;;;;;;;4980695;28;21629;-83
2022/11/07 13:27:56;;;;;;;2.30;0.75;;;;;;;;;;4984836;28;20032;-85
2022/11/07 13:30:38;;;;;;;1.55;1.10;;;;;;;;;;4997774;28;20034;-84
2022/11/07 13:33:08;;;;;;;7.72;0.90;;;;;;;;;;5007867;28;20033;-84
2022/11/07 13:35:37;;;;;;;3.33;1.20;;;;;;;;;;5010173;28;20051;-84
2022/11/07 13:38:22;;;;;;;3.08;0.73;;;;;;;;;;5015391;28;20048;-85
2022/11/07 13:40:48;;;;;;;2.70;0.90;;;;;;;;;;4992601;28;20030;-83
2022/11/07 13:43:24;;;;;;;5.82;1.00;;;;;;;;;;5012223;28;20026;-85
2022/11/07 13:45:56;;;;;;;3.03;1.05;;;;;;;;;;4993763;28;20113;-83
2022/11/07 13:48:28;;;;;;;1.38;0.88;;;;;;;;;;4993944;28;20028;-86
2022/11/07 13:51:08;;;;;;;3.35;1.00;;;;;;;;;;4994791;28;20076;-85
2022/11/07 13:54:17;;;;;;;8.57;1.38;;;;;;;;;;5006901;28;20564;-84
2022/11/07 13:56:52;;;;;;;2.38;1.05;;;;;;;;;;4963732;28;20046;-85
2022/11/07 13:59:56;;;;;;;2.63;1.13;;;;;;;;;;4999116;28;20037;-83
2022/11/07 14:02:29;;;;;;;1.13;0.80;;;;;;;;;;5006861;28;20038;-84
2022/11/07 14:05:00;;;;;;;8.00;1.15;;;;;;;;;;4997280;28;20387;-83
2022/11/07 14:07:32;;;;;;;4.25;0.93;;;;;;;;;;4994366;28;20033;-83
2022/11/07 14:09:59;;;;;;;1.38;0.68;;;;;;;;;;4997699;28;20102;-85
2022/11/07 14:12:25;;;;;;;3.72;1.15;;;;;;;;;;4995559;28;20034;-84
2022/11/07 14:14:53;;;;;;;5.28;1.00;;;;;;;;;;5015771;28;20049;-84
2022/11/07 14:17:29;;;;;;;6.07;0.85;;;;;;;;;;4999013;28;20033;-83
2022/11/07 14:20:04;;;;;;;3.13;0.93;;;;;;;;;;5002035;28;20053;-82
2022/11/07 14:22:30;;;;;;;2.90;0.98;;;;;;;;;;5004314;28;20026;-84
2022/11/07 14:24:56;;;;;;;4.68;0.90;;;;;;;;;;5025120;28;20052;-83
2022/11/07 14:27:23;;;;;;;1.08;0.60;;;;;;;;;;5005595;28;20645;-83
2022/11/07 14:29:54;;;;;;;6.82;1.08;;;;;;;;;;5006257;28;20033;-83
2022/11/07 14:32:19;;;;;;;3.78;0.95;;;;;;;;;;5015565;28;20091;-84
2022/11/07 14:34:47;;;;;;;2.40;1.17;;;;;;;;;;4993003;28;20120;-83
2022/11/07 14:37:15;;;;;;;0.75;0.73;;;;;;;;;;5004662;28;20026;-82
2022/11/07 14:39:40;;;;;;;1.15;0.75;;;;;;;;;;5016621;28;20045;-84
2022/11/07 14:42:06;;;;;;;2.08;0.85;;;;;;;;;;4995953;28;20506;-86
2022/11/07 14:44:41;;;;;;;3.85;1.10;;;;;;;;;;5002050;28;20116;-84
2022/11/07 14:47:13;;;;;;;7.18;1.30;;;;;;;;;;5003477;28;20030;-83
2022/11/07 14:49:43;;;;;;;4.93;1.48;;;;;;;;;;5005873;28;20036;-84
2022/11/07 14:52:25;;;;;;;1.63;1.17;;;;;;;;;;5001031;28;20018;-84
2022/11/07 14:54:59;;;;;;;5.03;1.60;;;;;;;;;;5018825;28;20387;-83
2022/11/07 14:57:24;;;;;;;5.15;1.75;;;;;;;;;;4995377;28;20030;-84
2022/11/07 14:59:50;;;;;;;3.35;1.20;;;;;;;;;;5015969;28;20103;-84
2022/11/07 15:02:25;;;;;;;1.35;1.05;;;;;;;;;;4998189;28;20431;-84
2022/11/07 15:04:51;;;;;;;2.13;0.88;;;;;;;;;;5001855;28;20026;-84
2022/11/07 15:07:20;;;;;;;4.07;0.80;;;;;;;;;;5004329;28;20137;-83
2022/11/07 15:09:45;;;;;;;4.28;0.98;;;;;;;;;;5005370;28;20021;-84
2022/11/07 15:12:19;;;;;;;3.00;0.73;;;;;;;;;;5004898;28;20033;-84
2022/11/07 15:14:59;;;;;;;2.85;0.70;;;;;;;;;;5005986;28;20097;-83
2022/11/07 15:17:26;;;;;;;1.52;0.82;;;;;;;;;;5001049;28;20034;-83
2022/11/07 15:20:00;;;;;;;4.05;1.00;;;;;;;;;;5016669;28;20112;-84
2022/11/07 15:22:35;;;;;;;6.68;1.08;;;;;;;;;;5013036;28;20029;-82
2022/11/07 15:25:01;;;;;;;1.10;0.70;;;;;;;;;;5021643;28;20045;-84
2022/11/07 15:27:39;;;;;;;1.80;0.82;;;;;;;;;;5015269;28;20057;-84
2022/11/07 15:30:05;;;;;;;0.93;0.80;;;;;;;;;;4993067;28;20026;-84
2022/11/07 15:32:39;;;;;;;2.00;0.50;;;;;;;;;;5019981;28;20065;-87
2022/11/07 15:35:17;;;;;;;1.65;0.50;;;;;;;;;;4986984;28;20022;-86
2022/11/07 15:37:59;;;;;;;10.43;1.08;;;;;;;;;;5004721;28;20072;-85
2022/11/07 15:40:26;;;;;;;1.88;0.82;;;;;;;;;;5017659;28;20026;-84
2022/11/07 15:42:51;;;;;;;3.05;0.63;;;;;;;;;;5003179;28;20025;-85
2022/11/07 15:45:17;;;;;;;1.38;0.55;;;;;;;;;;5015146;28;20034;-83
2022/11/07 15:47:44;;;;;;;1.67;0.85;;;;;;;;;;5004283;28;20097;-82
2022/11/07 15:50:15;;;;;;;3.60;0.80;;;;;;;;;;4998743;28;20049;-84
2022/11/07 15:52:41;;;;;;;3.83;1.15;;;;;;;;;;5016412;28;20480;-84
2022/11/07 15:55:11;;;;;;;5.55;1.00;;;;;;;;;;4998043;28;20109;-84
2022/11/07 15:57:36;;;;;;;1.15;0.98;;;;;;;;;;5017595;28;20048;-85
2022/11/07 16:00:03;;;;;;;3.53;1.50;;;;;;;;;;5014600;28;20357;-87
2022/11/07 16:02:28;;;;;;;7.38;1.80;;;;;;;;;;5011246;28;20022;-84
2022/11/07 16:04:54;;;;;;;4.28;1.75;;;;;;;;;;5032621;28;20034;-81
2022/11/07 16:07:19;;;;;;;5.00;1.25;;;;;;;;;;5019241;28;20533;-84
2022/11/07 16:09:47;;;;;;;3.53;1.10;;;;;;;;;;5011700;28;20022;-86
2022/11/07 16:12:14;;;;;;;1.23;1.00;;;;;;;;;;5013964;28;20026;-86
2022/11/07 16:14:40;;;;;;;2.22;1.55;;;;;;;;;;5021166;28;20022;-86
2022/11/07 16:17:06;;;;;;;5.38;1.95;;;;;;;;;;5011163;28;20053;-85
2022/11/07 16:19:31;;;;;;;4.55;1.58;;;;;;;;;;5009449;28;20021;-85
2022/11/07 16:21:56;;;;;;;8.40;2.22;;;;;;;;;;5006409;28;20033;-86
2022/11/07 16:24:22;;;;;;;11.05;2.22;;;;;;;;;;5020402;28;20048;-86
2022/11/07 16:26:48;;;;;;;4.93;1.95;;;;;;;;;;5016310;28;20031;-86
2022/11/07 16:29:14;;;;;;;2.70;1.58;;;;;;;;;;5014731;28;20026;-86
2022/11/07 16:31:40;;;;;;;4.50;1.70;;;;;;;;;;5016487;28;20121;-86
2022/11/07 16:34:09;;;;;;;2.60;1.65;;;;;;;;;;5001829;28;20029;-85
2022/11/07 16:36:35;;;;;;;4.55;1.52;;;;;;;;;;5002338;28;20034;-84
2022/11/07 16:39:04;;;;;;;6.13;2.05;;;;;;;;;;5011608;28;20018;-85
2022/11/07 16:41:30;;;;;;;7.35;1.23;;;;;;;;;;4994176;28;20072;-84
2022/11/07 16:43:55;;;;;;;3.47;1.10;;;;;;;;;;5004603;28;20077;-84
2022/11/07 16:46:23;;;;;;;3.63;1.30;;;;;;;;;;4995743;28;20029;-83
2022/11/07 16:49:04;;;;;;;2.28;1.23;;;;;;;;;;4993198;28;20046;-87
2022/11/07 16:51:29;;;;;;;7.37;1.00;;;;;;;;;;4995447;28;20061;-83
2022/11/07 16:53:55;;;;;;;3.97;1.10;;;;;;;;;;5023177;28;20056;-85
2022/11/07 16:56:24;;;;;;;6.47;1.13;;;;;;;;;;5026445;28;20026;-85
2022/11/07 16:58:51;;;;;;;7.43;1.38;;;;;;;;;;5015868;28;20026;-84
2022/11/07 17:01:17;;;;;;;3.22;1.20;;;;;;;;;;5016994;28;20026;-84
2022/11/07 17:03:43;;;;;;;2.58;0.80;;;;;;;;;;4993918;28;20017;-83
2022/11/07 17:06:42;;;;;;;2.28;1.05;;;;;;;;;;4997478;28;20116;-84
2022/11/07 17:09:09;;;;;;;3.20;1.73;;;;;;;;;;4998848;28;21003;-83
2022/11/07 17:11:35;;;;;;;2.92;1.50;;;;;;;;;;4995738;28;20053;-85
2022/11/07 17:14:00;;;;;;;20.90;1.83;;;;;;;;;;5017877;28;20030;-83
2022/11/07 17:16:35;;;;;;;4.85;1.90;;;;;;;;;;5000979;28;20036;-84
2022/11/07 17:19:01;;;;;;;20.08;4.30;;;;;;;;;;5005841;28;20034;-83
2022/11/07 17:21:31;;;;;;;19.15;5.03;;;;;;;;;;5026697;28;20055;-83
2022/11/07 17:23:58;;;;;;;30.90;8.48;;;;;;;;;;5015701;28;20087;-83
2022/11/07 17:26:28;;;;;;;20.17;6.97;;;;;;;;;;5016277;28;20492;-83
2022/11/07 17:28:55;;;;;;;14.77;4.57;;;;;;;;;;4996857;28;20121;-83
2022/11/07 17:31:20;;;;;;;12.85;3.08;;;;;;;;;;5007859;28;20053;-83
2022/11/07 17:33:46;;;;;;;5.47;1.63;;;;;;;;;;5004230;28;20073;-83
2022/11/07 17:36:26;;;;;;;8.23;1.92;;;;;;;;;;5009565;28;20576;-83
2022/11/07 17:38:52;;;;;;;5.88;1.40;;;;;;;;;;4975470;28;20036;-83
2022/11/07 17:41:18;;;;;;;14.55;1.90;;;;;;;;;;4992471;28;20496;-83
2022/11/07 17:43:45;;;;;;;5.28;1.80;;;;;;;;;;5009990;28;20058;-81
2022/11/07 17:46:28;;;;;;;3.95;1.58;;;;;;;;;;4995951;28;20091;-82
2022/11/07 17:48:56;;;;;;;10.20;1.58;;;;;;;;;;5007887;28;20052;-82
2022/11/07 17:51:25;;;;;;;5.00;1.05;;;;;;;;;;4997666;28;20079;-83
2022/11/07 17:53:51;;;;;;;4.78;1.00;;;;;;;;;;5013705;28;20054;-83
2022/11/07 17:56:18;;;;;;;4.22;1.00;;;;;;;;;;5011253;28;20068;-83
2022/11/07 17:58:51;;;;;;;6.07;1.10;;;;;;;;;;4995963;28;20587;-82
2022/11/07 18:01:20;;;;;;;5.22;1.40;;;;;;;;;;4992035;28;20030;-83
2022/11/07 18:03:46;;;;;;;1.55;0.90;;;;;;;;;;4986928;28;20030;-82
2022/11/07 18:06:11;;;;;;;2.70;0.85;;;;;;;;;;4995877;28;20033;-83
2022/11/07 18:08:41;;;;;;;10.25;1.20;;;;;;;;;;5004181;28;20428;-83
2022/11/07 18:11:07;;;;;;;4.85;1.40;;;;;;;;;;5010862;28;20030;-81
2022/11/07 18:13:33;;;;;;;0.70;0.70;;;;;;;;;;5008495;28;20072;-83
2022/11/07 18:15:58;;;;;;;2.17;1.23;;;;;;;;;;4994799;28;20032;-83
2022/11/07 18:18:24;;;;;;;0.88;0.70;;;;;;;;;;4992734;28;20084;-84
2022/11/07 18:20:49;;;;;;;5.90;1.38;;;;;;;;;;5011797;28;20049;-82
2022/11/07 18:23:14;;;;;;;0.98;0.65;;;;;;;;;;4996476;28;20033;-84
2022/11/07 18:25:40;;;;;;;1.85;0.70;;;;;;;;;;4976623;28;20049;-83
2022/11/07 18:28:06;;;;;;;1.88;1.10;;;;;;;;;;5012172;28;20038;-84
2022/11/07 18:30:31;;;;;;;6.85;1.20;;;;;;;;;;4996800;28;20041;-84
2022/11/07 18:32:57;;;;;;;1.40;0.80;;;;;;;;;;5014438;28;20026;-83
2022/11/07 18:35:22;;;;;;;4.28;1.30;;;;;;;;;;5027612;28;20026;-82
2022/11/07 18:37:48;;;;;;;1.23;0.80;;;;;;;;;;4986434;28;20044;-84
2022/11/07 18:40:14;;;;;;;2.33;1.02;;;;;;;;;;4992862;28;20025;-84
2022/11/07 18:42:44;;;;;;;1.80;1.35;;;;;;;;;;5009845;28;20028;-84
2022/11/07 18:45:10;;;;;;;2.38;1.48;;;;;;;;;;5011363;28;20022;-84
2022/11/07 18:47:35;;;;;;;1.50;1.10;;;;;;;;;;5006490;28;20057;-83
2022/11/07 18:50:01;;;;;;;3.85;1.75;;;;;;;;;;5012688;28;20041;-82
2022/11/07 18:52:29;;;;;;;11.77;6.03;;;;;;;;;;5013630;28;20037;-83
2022/11/07 18:54:55;;;;;;;10.50;5.43;;;;;;;;;;5010120;28;20057;-84
2022/11/07 18:57:20;;;;;;;10.15;3.53;;;;;;;;;;5007021;28;20053;-84
2022/11/07 18:59:45;;;;;;;7.43;3.20;;;;;;;;;;4979994;28;20394;-83
2022/11/07 19:02:11;;;;;;;7.82;3.25;;;;;;;;;;5006478;28;20860;-82
2022/11/07 19:04:36;;;;;;;3.88;2.50;;;;;;;;;;5015873;28;20030;-82
2022/11/07 19:07:01;;;;;;;4.85;2.63;;;;;;;;;;4995833;28;20496;-84
2022/11/07 19:09:30;;;;;;;5.93;2.88;;;;;;;;;;5004017;28;20062;-82
2022/11/07 19:11:56;;;;;;;4.75;2.20;;;;;;;;;;4993653;28;20117;-83
2022/11/07 19:14:22;;;;;;;5.00;2.70;;;;;;;;;;5007520;28;20033;-83
2022/11/07 19:16:48;;;;;;;4.47;2.30;;;;;;;;;;4991940;28;20026;-82
2022/11/07 19:19:14;;;;;;;3.75;2.20;;;;;;;;;;5017137;28;20507;-81
2022/11/07 19:21:40;;;;;;;7.63;2.55;;;;;;;;;;5018559;28;20025;-82
2022/11/07 19:24:05;;;;;;;9.85;3.17;;;;;;;;;;5026542;28;20498;-82
2022/11/07 19:26:31;;;;;;;15.45;5.25;;;;;;;;;;5021793;28;20545;-81
2022/11/07 19:28:59;;;;;;;13.80;5.63;;;;;;;;;;5026355;28;20037;-83
2022/11/07 19:31:25;;;;;;;13.48;4.90;;;;;;;;;;5006399;28;20030;-82